sensor_id;sensor_type;location;lat;lon;timestamp;pressure;altitude;pressure_sealevel;temperature;humidity
29315;BME280;16320;53.954;9.506;2022-08-24T00:00:03;101738.25;;;19.33;100.00
29315;BME280;16320;53.954;9.506;2022-08-24T00:03:07;101742.13;;;19.29;100.00
29315;BME280;16320;53.954;9.506;2022-08-24T00:06:18;101749.13;;;19.30;100.00
29315;BME280;16320;53.954;9.506;2022-08-24T00:09:23;101745.63;;;19.29;100.00
29315;BME280;16320;53.954;9.506;2022-08-24T00:12:28;101731.47;;;19.29;100.00
29315;BME280;16320;53.954;9.506;2022-08-24T00:15:32;101725.94;;;19.32;100.00
29315;BME280;16320;53.954;9.506;2022-08-24T00:18:41;101732.44;;;19.28;100.00
29315;BME280;16320;53.954;9.506;2022-08-24T00:21:46;101728.53;;;19.20;100.00
29315;BME280;16320;53.954;9.506;2022-08-24T00:24:50;101725.84;;;19.20;100.00
29315;BME280;16320;53.954;9.506;2022-08-24T00:27:56;101733.19;;;19.17;100.00
29315;BME280;16320;53.954;9.506;2022-08-24T00:31:02;101738.31;;;19.20;100.00
29315;BME280;16320;53.954;9.506;2022-08-24T00:34:08;101709.88;;;19.20;100.00
29315;BME280;16320;53.954;9.506;2022-08-24T00:37:13;101725.31;;;19.15;100.00
29315;BME280;16320;53.954;9.506;2022-08-24T00:40:35;101736.44;;;19.09;100.00
29315;BME280;16320;53.954;9.506;2022-08-24T00:43:55;101750.69;;;19.08;100.00
29315;BME280;16320;53.954;9.506;2022-08-24T00:47:16;101747.41;;;19.05;100.00
29315;BME280;16320;53.954;9.506;2022-08-24T00:50:30;101752.31;;;18.98;100.00
29315;BME280;16320;53.954;9.506;2022-08-24T00:53:39;101738.25;;;18.96;100.00
29315;BME280;16320;53.954;9.506;2022-08-24T00:56:53;101716.00;;;18.97;100.00
29315;BME280;16320;53.954;9.506;2022-08-24T01:00:13;101698.56;;;18.93;100.00
29315;BME280;16320;53.954;9.506;2022-08-24T01:03:18;101712.72;;;18.93;100.00
29315;BME280;16320;53.954;9.506;2022-08-24T01:06:23;101705.66;;;18.92;100.00
29315;BME280;16320;53.954;9.506;2022-08-24T01:09:28;101704.09;;;18.90;100.00
29315;BME280;16320;53.954;9.506;2022-08-24T01:12:36;101719.84;;;18.93;100.00
29315;BME280;16320;53.954;9.506;2022-08-24T01:15:46;101708.34;;;18.92;100.00
29315;BME280;16320;53.954;9.506;2022-08-24T01:18:53;101695.13;;;18.91;100.00
29315;BME280;16320;53.954;9.506;2022-08-24T01:25:37;101713.88;;;18.89;100.00
29315;BME280;16320;53.954;9.506;2022-08-24T01:28:51;101703.22;;;18.89;100.00
29315;BME280;16320;53.954;9.506;2022-08-24T01:31:58;101705.78;;;18.91;100.00
29315;BME280;16320;53.954;9.506;2022-08-24T01:35:03;101710.47;;;18.87;100.00
29315;BME280;16320;53.954;9.506;2022-08-24T01:38:09;101710.38;;;18.89;100.00
29315;BME280;16320;53.954;9.506;2022-08-24T01:41:15;101682.81;;;18.90;100.00
29315;BME280;16320;53.954;9.506;2022-08-24T01:44:20;101685.56;;;18.88;100.00
29315;BME280;16320;53.954;9.506;2022-08-24T01:47:24;101687.78;;;18.81;100.00
29315;BME280;16320;53.954;9.506;2022-08-24T01:50:29;101697.47;;;18.82;100.00
29315;BME280;16320;53.954;9.506;2022-08-24T01:53:35;101715.91;;;18.86;100.00
29315;BME280;16320;53.954;9.506;2022-08-24T01:56:40;101693.66;;;18.87;100.00
29315;BME280;16320;53.954;9.506;2022-08-24T01:59:45;101708.78;;;18.86;100.00
29315;BME280;16320;53.954;9.506;2022-08-24T02:02:49;101692.06;;;18.84;100.00
29315;BME280;16320;53.954;9.506;2022-08-24T02:05:54;101692.47;;;18.78;100.00
29315;BME280;16320;53.954;9.506;2022-08-24T02:08:59;101699.00;;;18.87;100.00
29315;BME280;16320;53.954;9.506;2022-08-24T02:12:05;101702.59;;;18.86;100.00
29315;BME280;16320;53.954;9.506;2022-08-24T02:15:10;101729.63;;;18.79;100.00
29315;BME280;16320;53.954;9.506;2022-08-24T02:18:16;101741.34;;;18.77;100.00
29315;BME280;16320;53.954;9.506;2022-08-24T02:21:20;101746.00;;;18.73;100.00
29315;BME280;16320;53.954;9.506;2022-08-24T02:24:25;101754.22;;;18.70;100.00
29315;BME280;16320;53.954;9.506;2022-08-24T02:27:30;101741.66;;;18.72;100.00
29315;BME280;16320;53.954;9.506;2022-08-24T02:30:34;101741.56;;;18.61;100.00
29315;BME280;16320;53.954;9.506;2022-08-24T02:33:40;101743.28;;;18.62;100.00
29315;BME280;16320;53.954;9.506;2022-08-24T02:36:45;101754.34;;;18.56;100.00
29315;BME280;16320;53.954;9.506;2022-08-24T02:39:50;101756.22;;;18.54;100.00
29315;BME280;16320;53.954;9.506;2022-08-24T02:42:55;101766.13;;;18.52;100.00
29315;BME280;16320;53.954;9.506;2022-08-24T02:46:00;101765.59;;;18.46;100.00
29315;BME280;16320;53.954;9.506;2022-08-24T02:49:05;101770.50;;;18.40;100.00
29315;BME280;16320;53.954;9.506;2022-08-24T02:52:15;101766.22;;;18.37;100.00
29315;BME280;16320;53.954;9.506;2022-08-24T02:55:19;101761.00;;;18.36;100.00
29315;BME280;16320;53.954;9.506;2022-08-24T02:58:24;101749.44;;;18.37;100.00
29315;BME280;16320;53.954;9.506;2022-08-24T03:01:28;101759.44;;;18.33;100.00
29315;BME280;16320;53.954;9.506;2022-08-24T03:04:34;101775.59;;;18.30;100.00
29315;BME280;16320;53.954;9.506;2022-08-24T03:07:38;101753.78;;;18.25;100.00
29315;BME280;16320;53.954;9.506;2022-08-24T03:10:43;101737.28;;;18.20;100.00
29315;BME280;16320;53.954;9.506;2022-08-24T03:13:48;101760.25;;;18.21;100.00
29315;BME280;16320;53.954;9.506;2022-08-24T03:16:52;101773.75;;;18.18;100.00
29315;BME280;16320;53.954;9.506;2022-08-24T03:19:57;101785.47;;;18.15;100.00
29315;BME280;16320;53.954;9.506;2022-08-24T03:23:01;101775.13;;;18.10;100.00
29315;BME280;16320;53.954;9.506;2022-08-24T03:26:06;101792.41;;;18.03;100.00
29315;BME280;16320;53.954;9.506;2022-08-24T03:29:10;101793.19;;;18.05;100.00
29315;BME280;16320;53.954;9.506;2022-08-24T03:32:19;101803.06;;;18.03;100.00
29315;BME280;16320;53.954;9.506;2022-08-24T03:35:23;101801.03;;;17.94;100.00
29315;BME280;16320;53.954;9.506;2022-08-24T03:38:28;101788.78;;;17.91;100.00
29315;BME280;16320;53.954;9.506;2022-08-24T03:41:33;101792.41;;;17.90;100.00
29315;BME280;16320;53.954;9.506;2022-08-24T03:44:40;101796.19;;;17.86;100.00
29315;BME280;16320;53.954;9.506;2022-08-24T03:47:44;101776.19;;;17.81;100.00
29315;BME280;16320;53.954;9.506;2022-08-24T03:50:49;101781.91;;;17.74;100.00
29315;BME280;16320;53.954;9.506;2022-08-24T03:53:57;101772.22;;;17.73;100.00
29315;BME280;16320;53.954;9.506;2022-08-24T03:57:02;101777.72;;;17.70;100.00
29315;BME280;16320;53.954;9.506;2022-08-24T04:00:10;101786.56;;;17.71;100.00
29315;BME280;16320;53.954;9.506;2022-08-24T04:03:15;101788.75;;;17.64;100.00
29315;BME280;16320;53.954;9.506;2022-08-24T04:06:21;101792.16;;;17.66;100.00
29315;BME280;16320;53.954;9.506;2022-08-24T04:09:26;101804.69;;;17.64;100.00
29315;BME280;16320;53.954;9.506;2022-08-24T04:12:32;101809.44;;;17.59;100.00
29315;BME280;16320;53.954;9.506;2022-08-24T04:15:42;101816.56;;;17.59;100.00
29315;BME280;16320;53.954;9.506;2022-08-24T04:18:48;101822.56;;;17.48;100.00
29315;BME280;16320;53.954;9.506;2022-08-24T04:21:53;101828.84;;;17.47;100.00
29315;BME280;16320;53.954;9.506;2022-08-24T04:24:57;101829.03;;;17.44;100.00
29315;BME280;16320;53.954;9.506;2022-08-24T04:28:02;101823.06;;;17.40;100.00
29315;BME280;16320;53.954;9.506;2022-08-24T04:31:07;101830.91;;;17.42;100.00
29315;BME280;16320;53.954;9.506;2022-08-24T04:34:14;101827.03;;;17.33;100.00
29315;BME280;16320;53.954;9.506;2022-08-24T04:37:19;101823.25;;;17.37;100.00
29315;BME280;16320;53.954;9.506;2022-08-24T04:40:33;101835.94;;;17.32;100.00
29315;BME280;16320;53.954;9.506;2022-08-24T04:43:40;101827.13;;;17.31;100.00
29315;BME280;16320;53.954;9.506;2022-08-24T04:46:49;101852.19;;;17.27;100.00
29315;BME280;16320;53.954;9.506;2022-08-24T04:49:53;101851.41;;;17.25;100.00
29315;BME280;16320;53.954;9.506;2022-08-24T04:52:58;101861.28;;;17.23;100.00
29315;BME280;16320;53.954;9.506;2022-08-24T04:56:03;101860.53;;;17.21;100.00
29315;BME280;16320;53.954;9.506;2022-08-24T04:59:12;101874.72;;;17.20;100.00
29315;BME280;16320;53.954;9.506;2022-08-24T05:02:17;101869.41;;;17.20;100.00
29315;BME280;16320;53.954;9.506;2022-08-24T05:05:21;101852.66;;;17.19;100.00
29315;BME280;16320;53.954;9.506;2022-08-24T05:08:25;101864.38;;;17.15;100.00
29315;BME280;16320;53.954;9.506;2022-08-24T05:11:30;101865.09;;;17.19;100.00
29315;BME280;16320;53.954;9.506;2022-08-24T05:14:35;101854.47;;;17.19;100.00
29315;BME280;16320;53.954;9.506;2022-08-24T05:17:42;101853.50;;;17.20;100.00
29315;BME280;16320;53.954;9.506;2022-08-24T05:20:55;101869.31;;;17.22;100.00
29315;BME280;16320;53.954;9.506;2022-08-24T05:23:59;101876.44;;;17.21;100.00
29315;BME280;16320;53.954;9.506;2022-08-24T05:27:04;101886.88;;;17.24;100.00
29315;BME280;16320;53.954;9.506;2022-08-24T05:30:09;101897.13;;;17.30;100.00
29315;BME280;16320;53.954;9.506;2022-08-24T05:33:14;101898.44;;;17.37;100.00
29315;BME280;16320;53.954;9.506;2022-08-24T05:36:26;101908.03;;;17.40;100.00
29315;BME280;16320;53.954;9.506;2022-08-24T05:39:31;101910.38;;;17.45;100.00
29315;BME280;16320;53.954;9.506;2022-08-24T05:42:36;101912.75;;;17.49;100.00
29315;BME280;16320;53.954;9.506;2022-08-24T05:45:44;101903.75;;;17.52;100.00
29315;BME280;16320;53.954;9.506;2022-08-24T05:48:49;101895.78;;;17.52;100.00
29315;BME280;16320;53.954;9.506;2022-08-24T05:51:56;101911.34;;;17.58;100.00
29315;BME280;16320;53.954;9.506;2022-08-24T05:55:01;101903.19;;;17.61;100.00
29315;BME280;16320;53.954;9.506;2022-08-24T05:58:05;101903.56;;;17.69;100.00
29315;BME280;16320;53.954;9.506;2022-08-24T06:01:21;101917.41;;;17.74;100.00
29315;BME280;16320;53.954;9.506;2022-08-24T06:04:26;101913.50;;;17.80;100.00
29315;BME280;16320;53.954;9.506;2022-08-24T06:07:32;101902.78;;;17.82;100.00
29315;BME280;16320;53.954;9.506;2022-08-24T06:10:46;101906.69;;;17.90;100.00
29315;BME280;16320;53.954;9.506;2022-08-24T06:13:57;101913.13;;;18.01;100.00
29315;BME280;16320;53.954;9.506;2022-08-24T06:17:05;101920.16;;;18.02;100.00
29315;BME280;16320;53.954;9.506;2022-08-24T06:20:11;101930.28;;;18.09;100.00
29315;BME280;16320;53.954;9.506;2022-08-24T06:23:15;101927.78;;;18.21;100.00
29315;BME280;16320;53.954;9.506;2022-08-24T06:26:20;101925.47;;;18.29;100.00
29315;BME280;16320;53.954;9.506;2022-08-24T06:29:43;101919.84;;;18.34;100.00
29315;BME280;16320;53.954;9.506;2022-08-24T06:32:48;101916.50;;;18.44;100.00
29315;BME280;16320;53.954;9.506;2022-08-24T06:35:54;101906.94;;;18.55;100.00
29315;BME280;16320;53.954;9.506;2022-08-24T06:38:59;101906.44;;;18.62;100.00
29315;BME280;16320;53.954;9.506;2022-08-24T06:42:04;101897.16;;;18.68;100.00
29315;BME280;16320;53.954;9.506;2022-08-24T06:45:10;101888.66;;;18.76;100.00
29315;BME280;16320;53.954;9.506;2022-08-24T06:48:15;101882.75;;;18.85;100.00
29315;BME280;16320;53.954;9.506;2022-08-24T06:51:21;101879.78;;;18.90;100.00
29315;BME280;16320;53.954;9.506;2022-08-24T06:54:26;101892.56;;;18.97;100.00
29315;BME280;16320;53.954;9.506;2022-08-24T06:57:31;101881.38;;;19.05;100.00
29315;BME280;16320;53.954;9.506;2022-08-24T07:00:36;101891.28;;;19.16;100.00
29315;BME280;16320;53.954;9.506;2022-08-24T07:03:41;101889.91;;;19.23;100.00
29315;BME280;16320;53.954;9.506;2022-08-24T07:06:46;101892.66;;;19.34;100.00
29315;BME280;16320;53.954;9.506;2022-08-24T07:09:53;101907.16;;;19.43;100.00
29315;BME280;16320;53.954;9.506;2022-08-24T07:12:57;101908.09;;;19.55;100.00
29315;BME280;16320;53.954;9.506;2022-08-24T07:16:02;101915.31;;;19.66;100.00
29315;BME280;16320;53.954;9.506;2022-08-24T07:19:08;101916.41;;;19.76;100.00
29315;BME280;16320;53.954;9.506;2022-08-24T07:22:12;101902.16;;;19.88;100.00
29315;BME280;16320;53.954;9.506;2022-08-24T07:25:20;101909.28;;;20.01;100.00
29315;BME280;16320;53.954;9.506;2022-08-24T07:28:24;101918.31;;;20.11;100.00
29315;BME280;16320;53.954;9.506;2022-08-24T07:31:38;101918.38;;;20.22;100.00
29315;BME280;16320;53.954;9.506;2022-08-24T07:34:43;101924.50;;;20.36;100.00
29315;BME280;16320;53.954;9.506;2022-08-24T07:37:48;101912.69;;;20.51;100.00
29315;BME280;16320;53.954;9.506;2022-08-24T07:40:57;101924.38;;;20.61;100.00
29315;BME280;16320;53.954;9.506;2022-08-24T07:44:22;101918.38;;;20.71;100.00
29315;BME280;16320;53.954;9.506;2022-08-24T07:47:27;101896.81;;;20.85;100.00
29315;BME280;16320;53.954;9.506;2022-08-24T07:50:44;101896.22;;;20.93;100.00
29315;BME280;16320;53.954;9.506;2022-08-24T07:53:48;101890.03;;;21.03;100.00
29315;BME280;16320;53.954;9.506;2022-08-24T07:57:02;101900.25;;;21.10;100.00
29315;BME280;16320;53.954;9.506;2022-08-24T08:00:13;101892.00;;;21.13;100.00
29315;BME280;16320;53.954;9.506;2022-08-24T08:03:19;101888.38;;;21.25;100.00
29315;BME280;16320;53.954;9.506;2022-08-24T08:06:25;101875.97;;;21.35;100.00
29315;BME280;16320;53.954;9.506;2022-08-24T08:09:29;101865.28;;;21.47;100.00
29315;BME280;16320;53.954;9.506;2022-08-24T08:12:34;101889.13;;;21.50;100.00
29315;BME280;16320;53.954;9.506;2022-08-24T08:15:38;101894.84;;;21.56;100.00
29315;BME280;16320;53.954;9.506;2022-08-24T08:18:43;101866.00;;;21.71;100.00
29315;BME280;16320;53.954;9.506;2022-08-24T08:21:52;101883.25;;;21.79;100.00
29315;BME280;16320;53.954;9.506;2022-08-24T08:25:15;101875.84;;;21.82;100.00
29315;BME280;16320;53.954;9.506;2022-08-24T08:28:20;101892.00;;;21.81;100.00
29315;BME280;16320;53.954;9.506;2022-08-24T08:31:29;101894.44;;;21.84;100.00
29315;BME280;16320;53.954;9.506;2022-08-24T08:34:37;101915.84;;;21.84;100.00
29315;BME280;16320;53.954;9.506;2022-08-24T08:37:42;101918.75;;;21.81;100.00
29315;BME280;16320;53.954;9.506;2022-08-24T08:51:32;101916.25;;;22.11;100.00
29315;BME280;16320;53.954;9.506;2022-08-24T08:58:27;101898.59;;;22.20;100.00
29315;BME280;16320;53.954;9.506;2022-08-24T09:02:16;101895.91;;;22.32;100.00
29315;BME280;16320;53.954;9.506;2022-08-24T09:05:50;101919.22;;;22.41;100.00
29315;BME280;16320;53.954;9.506;2022-08-24T09:20:05;101882.94;;;22.69;100.00
29315;BME280;16320;53.954;9.506;2022-08-24T09:30:25;101852.28;;;23.04;100.00
29315;BME280;16320;53.954;9.506;2022-08-24T09:34:05;101843.59;;;23.12;100.00
29315;BME280;16320;53.954;9.506;2022-08-24T09:37:32;101836.31;;;23.24;100.00
29315;BME280;16320;53.954;9.506;2022-08-24T09:51:40;101812.53;;;23.40;100.00
29315;BME280;16320;53.954;9.506;2022-08-24T10:02:47;101805.94;;;23.64;100.00
29315;BME280;16320;53.954;9.506;2022-08-24T10:13:22;101784.63;;;23.82;100.00
29315;BME280;16320;53.954;9.506;2022-08-24T10:21:08;101747.69;;;24.05;100.00
29315;BME280;16320;53.954;9.506;2022-08-24T10:24:28;101758.53;;;24.13;100.00
29315;BME280;16320;53.954;9.506;2022-08-24T10:31:11;101745.78;;;24.35;100.00
29315;BME280;16320;53.954;9.506;2022-08-24T10:37:48;101745.56;;;24.65;100.00
29315;BME280;16320;53.954;9.506;2022-08-24T10:44:53;101694.41;;;25.13;100.00
29315;BME280;16320;53.954;9.506;2022-08-24T10:55:26;101690.75;;;26.04;100.00
29315;BME280;16320;53.954;9.506;2022-08-24T10:58:40;101702.25;;;26.14;100.00
29315;BME280;16320;53.954;9.506;2022-08-24T11:02:01;101692.06;;;26.26;100.00
29315;BME280;16320;53.954;9.506;2022-08-24T11:05:39;101679.63;;;26.33;100.00
29315;BME280;16320;53.954;9.506;2022-08-24T11:09:01;101675.56;;;26.21;100.00
29315;BME280;16320;53.954;9.506;2022-08-24T11:12:34;101691.97;;;26.09;100.00
29315;BME280;16320;53.954;9.506;2022-08-24T11:15:49;101687.53;;;25.82;100.00
29315;BME280;16320;53.954;9.506;2022-08-24T11:19:01;101681.31;;;25.64;100.00
29315;BME280;16320;53.954;9.506;2022-08-24T11:25:38;101690.69;;;25.24;100.00
29315;BME280;16320;53.954;9.506;2022-08-24T11:28:58;101692.97;;;25.18;100.00
29315;BME280;16320;53.954;9.506;2022-08-24T11:32:04;101681.97;;;25.12;100.00
29315;BME280;16320;53.954;9.506;2022-08-24T11:35:34;101678.66;;;25.18;100.00
29315;BME280;16320;53.954;9.506;2022-08-24T11:38:42;101676.19;;;25.34;100.00
29315;BME280;16320;53.954;9.506;2022-08-24T11:41:56;101692.59;;;25.31;100.00
29315;BME280;16320;53.954;9.506;2022-08-24T11:48:41;101671.81;;;25.33;100.00
29315;BME280;16320;53.954;9.506;2022-08-24T11:52:13;101681.78;;;25.41;100.00
29315;BME280;16320;53.954;9.506;2022-08-24T12:02:35;101676.97;;;25.45;100.00
29315;BME280;16320;53.954;9.506;2022-08-24T12:12:44;101668.34;;;25.59;100.00
29315;BME280;16320;53.954;9.506;2022-08-24T12:19:29;101657.03;;;26.18;100.00
29315;BME280;16320;53.954;9.506;2022-08-24T12:22:40;101655.31;;;26.51;100.00
29315;BME280;16320;53.954;9.506;2022-08-24T12:25:52;101653.28;;;26.79;100.00
29315;BME280;16320;53.954;9.506;2022-08-24T12:29:15;101638.66;;;26.98;100.00
29315;BME280;16320;53.954;9.506;2022-08-24T12:32:29;101633.97;;;27.09;100.00
29315;BME280;16320;53.954;9.506;2022-08-24T12:35:46;101637.84;;;27.22;100.00
29315;BME280;16320;53.954;9.506;2022-08-24T12:39:26;101642.25;;;27.24;100.00
29315;BME280;16320;53.954;9.506;2022-08-24T12:42:46;101638.50;;;27.25;100.00
29315;BME280;16320;53.954;9.506;2022-08-24T12:45:58;101639.59;;;27.32;100.00
29315;BME280;16320;53.954;9.506;2022-08-24T12:49:27;101642.78;;;27.35;100.00
29315;BME280;16320;53.954;9.506;2022-08-24T12:53:31;101642.59;;;27.29;100.00
29315;BME280;16320;53.954;9.506;2022-08-24T13:01:02;101631.94;;;27.11;100.00
29315;BME280;16320;53.954;9.506;2022-08-24T13:07:45;101639.13;;;26.94;100.00
29315;BME280;16320;53.954;9.506;2022-08-24T13:10:58;101644.00;;;26.82;100.00
29315;BME280;16320;53.954;9.506;2022-08-24T13:17:40;101639.09;;;26.69;100.00
29315;BME280;16320;53.954;9.506;2022-08-24T13:37:21;101626.31;;;26.45;100.00
29315;BME280;16320;53.954;9.506;2022-08-24T13:40:27;101633.56;;;26.44;100.00
29315;BME280;16320;53.954;9.506;2022-08-24T13:44:00;101634.25;;;26.46;100.00
29315;BME280;16320;53.954;9.506;2022-08-24T13:51:54;101640.94;;;26.34;100.00
29315;BME280;16320;53.954;9.506;2022-08-24T14:00:10;101639.59;;;26.38;100.00
29315;BME280;16320;53.954;9.506;2022-08-24T14:04:01;101644.13;;;26.29;100.00
29315;BME280;16320;53.954;9.506;2022-08-24T14:07:20;101637.66;;;26.22;100.00
29315;BME280;16320;53.954;9.506;2022-08-24T14:14:09;101637.19;;;26.27;100.00
29315;BME280;16320;53.954;9.506;2022-08-24T14:21:13;101634.72;;;26.07;100.00
29315;BME280;16320;53.954;9.506;2022-08-24T14:28:37;101634.00;;;25.97;100.00
29315;BME280;16320;53.954;9.506;2022-08-24T14:39:04;101624.16;;;25.88;100.00
29315;BME280;16320;53.954;9.506;2022-08-24T14:42:35;101623.94;;;25.81;100.00
29315;BME280;16320;53.954;9.506;2022-08-24T14:49:15;101618.41;;;25.83;100.00
29315;BME280;16320;53.954;9.506;2022-08-24T14:53:00;101628.59;;;25.71;100.00
29315;BME280;16320;53.954;9.506;2022-08-24T14:57:19;101618.53;;;25.55;100.00
29315;BME280;16320;53.954;9.506;2022-08-24T15:01:00;101617.50;;;25.48;100.00
29315;BME280;16320;53.954;9.506;2022-08-24T15:04:40;101606.72;;;25.48;100.00
29315;BME280;16320;53.954;9.506;2022-08-24T15:08:11;101607.88;;;25.45;100.00
29315;BME280;16320;53.954;9.506;2022-08-24T15:11:25;101607.78;;;25.55;100.00
29315;BME280;16320;53.954;9.506;2022-08-24T15:14:53;101606.03;;;25.46;100.00
29315;BME280;16320;53.954;9.506;2022-08-24T15:18:32;101607.03;;;25.45;100.00
29315;BME280;16320;53.954;9.506;2022-08-24T15:22:25;101613.38;;;25.62;100.00
29315;BME280;16320;53.954;9.506;2022-08-24T15:26:02;101610.34;;;25.38;100.00
29315;BME280;16320;53.954;9.506;2022-08-24T15:29:23;101611.94;;;25.31;100.00
29315;BME280;16320;53.954;9.506;2022-08-24T15:33:03;101599.53;;;25.30;100.00
29315;BME280;16320;53.954;9.506;2022-08-24T15:36:19;101608.13;;;25.34;100.00
29315;BME280;16320;53.954;9.506;2022-08-24T15:39:35;101606.97;;;25.36;100.00
29315;BME280;16320;53.954;9.506;2022-08-24T15:42:44;101611.09;;;25.31;100.00
29315;BME280;16320;53.954;9.506;2022-08-24T15:57:38;101608.31;;;25.04;100.00
29315;BME280;16320;53.954;9.506;2022-08-24T16:08:57;101614.59;;;25.13;100.00
29315;BME280;16320;53.954;9.506;2022-08-24T16:12:13;101618.84;;;25.16;100.00
29315;BME280;16320;53.954;9.506;2022-08-24T16:15:21;101614.06;;;25.10;100.00
29315;BME280;16320;53.954;9.506;2022-08-24T16:18:50;101617.69;;;25.00;100.00
29315;BME280;16320;53.954;9.506;2022-08-24T16:22:07;101605.94;;;25.01;100.00
29315;BME280;16320;53.954;9.506;2022-08-24T16:25:29;101619.81;;;24.97;100.00
29315;BME280;16320;53.954;9.506;2022-08-24T16:28:38;101613.63;;;24.96;100.00
29315;BME280;16320;53.954;9.506;2022-08-24T16:31:48;101607.09;;;24.99;100.00
29315;BME280;16320;53.954;9.506;2022-08-24T16:35:18;101616.44;;;24.95;100.00
29315;BME280;16320;53.954;9.506;2022-08-24T16:38:22;101637.72;;;24.88;100.00
29315;BME280;16320;53.954;9.506;2022-08-24T16:41:29;101618.34;;;24.66;100.00
29315;BME280;16320;53.954;9.506;2022-08-24T16:44:40;101624.78;;;24.74;100.00
29315;BME280;16320;53.954;9.506;2022-08-24T16:47:46;101630.47;;;24.71;100.00
29315;BME280;16320;53.954;9.506;2022-08-24T16:50:51;101621.41;;;24.72;100.00
29315;BME280;16320;53.954;9.506;2022-08-24T16:53:56;101630.84;;;24.76;100.00
29315;BME280;16320;53.954;9.506;2022-08-24T16:57:12;101628.06;;;24.67;100.00
29315;BME280;16320;53.954;9.506;2022-08-24T17:00:17;101632.22;;;24.52;100.00
29315;BME280;16320;53.954;9.506;2022-08-24T17:03:25;101629.44;;;24.44;100.00
29315;BME280;16320;53.954;9.506;2022-08-24T17:06:29;101627.44;;;24.46;100.00
29315;BME280;16320;53.954;9.506;2022-08-24T17:09:37;101629.44;;;24.44;100.00
29315;BME280;16320;53.954;9.506;2022-08-24T17:12:43;101630.72;;;24.40;100.00
29315;BME280;16320;53.954;9.506;2022-08-24T17:15:48;101637.97;;;24.29;100.00
29315;BME280;16320;53.954;9.506;2022-08-24T17:18:57;101641.94;;;24.25;100.00
29315;BME280;16320;53.954;9.506;2022-08-24T17:22:04;101648.22;;;24.16;100.00
29315;BME280;16320;53.954;9.506;2022-08-24T17:25:08;101641.03;;;24.07;100.00
29315;BME280;16320;53.954;9.506;2022-08-24T17:28:16;101640.19;;;24.06;100.00
29315;BME280;16320;53.954;9.506;2022-08-24T17:31:22;101636.38;;;23.99;100.00
29315;BME280;16320;53.954;9.506;2022-08-24T17:34:29;101641.47;;;23.92;100.00
29315;BME280;16320;53.954;9.506;2022-08-24T17:37:35;101647.69;;;23.83;100.00
29315;BME280;16320;53.954;9.506;2022-08-24T17:40:40;101660.66;;;23.78;100.00
29315;BME280;16320;53.954;9.506;2022-08-24T17:43:44;101659.56;;;23.71;100.00
29315;BME280;16320;53.954;9.506;2022-08-24T17:46:51;101669.88;;;23.66;100.00
29315;BME280;16320;53.954;9.506;2022-08-24T17:49:56;101671.69;;;23.55;100.00
29315;BME280;16320;53.954;9.506;2022-08-24T17:53:00;101688.19;;;23.51;100.00
29315;BME280;16320;53.954;9.506;2022-08-24T17:56:06;101687.78;;;23.46;100.00
29315;BME280;16320;53.954;9.506;2022-08-24T17:59:14;101694.56;;;23.40;100.00
29315;BME280;16320;53.954;9.506;2022-08-24T18:02:27;101696.81;;;23.35;100.00
29315;BME280;16320;53.954;9.506;2022-08-24T18:05:33;101718.69;;;23.40;100.00
29315;BME280;16320;53.954;9.506;2022-08-24T18:08:38;101736.31;;;23.33;100.00
29315;BME280;16320;53.954;9.506;2022-08-24T18:11:42;101748.72;;;23.34;100.00
29315;BME280;16320;53.954;9.506;2022-08-24T18:14:47;101783.41;;;23.26;100.00
29315;BME280;16320;53.954;9.506;2022-08-24T18:17:52;101803.69;;;23.18;100.00
29315;BME280;16320;53.954;9.506;2022-08-24T18:20:58;101812.28;;;23.12;100.00
29315;BME280;16320;53.954;9.506;2022-08-24T18:24:02;101838.34;;;23.10;100.00
29315;BME280;16320;53.954;9.506;2022-08-24T18:27:20;101852.69;;;22.99;100.00
29315;BME280;16320;53.954;9.506;2022-08-24T18:30:30;101863.09;;;22.93;100.00
29315;BME280;16320;53.954;9.506;2022-08-24T18:33:34;101867.00;;;22.89;100.00
29315;BME280;16320;53.954;9.506;2022-08-24T18:36:39;101878.28;;;22.92;100.00
29315;BME280;16320;53.954;9.506;2022-08-24T18:39:44;101883.31;;;22.85;100.00
29315;BME280;16320;53.954;9.506;2022-08-24T18:42:50;101894.31;;;22.82;100.00
29315;BME280;16320;53.954;9.506;2022-08-24T18:45:55;101899.34;;;22.76;100.00
29315;BME280;16320;53.954;9.506;2022-08-24T18:49:01;101904.38;;;22.69;100.00
29315;BME280;16320;53.954;9.506;2022-08-24T18:52:06;101907.56;;;22.63;100.00
29315;BME280;16320;53.954;9.506;2022-08-24T18:55:13;101907.09;;;22.58;100.00
29315;BME280;16320;53.954;9.506;2022-08-24T18:58:18;101910.16;;;22.53;100.00
29315;BME280;16320;53.954;9.506;2022-08-24T19:01:23;101908.75;;;22.49;100.00
29315;BME280;16320;53.954;9.506;2022-08-24T19:04:29;101921.03;;;22.40;100.00
29315;BME280;16320;53.954;9.506;2022-08-24T19:07:41;101913.06;;;22.29;100.00
29315;BME280;16320;53.954;9.506;2022-08-24T19:10:46;101923.13;;;22.25;100.00
29315;BME280;16320;53.954;9.506;2022-08-24T19:13:50;101932.91;;;22.15;100.00
29315;BME280;16320;53.954;9.506;2022-08-24T19:16:55;101922.69;;;22.09;100.00
29315;BME280;16320;53.954;9.506;2022-08-24T19:19:59;101920.16;;;22.07;100.00
29315;BME280;16320;53.954;9.506;2022-08-24T19:23:08;101925.75;;;22.04;100.00
29315;BME280;16320;53.954;9.506;2022-08-24T19:26:13;101925.41;;;21.98;100.00
29315;BME280;16320;53.954;9.506;2022-08-24T19:29:20;101946.31;;;21.92;100.00
29315;BME280;16320;53.954;9.506;2022-08-24T19:32:44;101939.63;;;21.87;100.00